Time,TemperatureF,DewpointF,PressureIn,WindDirection,WindDirectionDegrees,WindSpeedMPH,WindSpeedGustMPH,Humidity,HourlyPrecipIn,Conditions,Clouds,dailyrainin,SoftwareType,DateUTC
2013-01-05 00:00:00,39.9,34.6,30.44,SSE,154,0.0,0.0,81,0.00,,---,0.00,VWS V14.00,2013-01-05 05:00:00,
2013-01-05 00:02:00,39.9,34.6,30.44,SSE,154,2.2,2.2,81,0.00,,---,0.00,VWS V14.00,2013-01-05 05:02:00,
2013-01-05 00:07:00,39.9,34.6,30.44,SSE,154,0.0,0.0,81,0.00,,---,0.00,VWS V14.00,2013-01-05 05:07:00,
2013-01-05 00:09:00,39.9,34.6,30.44,SSE,154,0.0,0.0,81,0.00,,---,0.00,VWS V14.00,2013-01-05 05:09:00,
2013-01-05 00:14:00,39.9,34.6,30.44,SSE,154,0.0,0.0,81,0.00,,---,0.00,VWS V14.00,2013-01-05 05:14:00,
2013-01-05 00:19:00,39.9,34.6,30.41,SSE,154,0.0,0.0,81,0.00,,---,0.00,VWS V14.00,2013-01-05 05:19:00,
2013-01-05 00:24:00,39.9,34.6,30.41,SSE,154,0.0,0.0,81,0.00,,---,0.00,VWS V14.00,2013-01-05 05:24:00,
2013-01-05 00:29:00,39.9,34.6,30.41,SSE,154,0.0,0.0,81,0.00,,---,0.00,VWS V14.00,2013-01-05 05:29:00,
2013-01-05 00:34:00,39.9,34.6,30.41,SSE,154,0.0,0.0,81,0.00,,---,0.00,VWS V14.00,2013-01-05 05:34:00,
2013-01-05 00:39:00,39.7,34.4,30.41,SSE,154,0.0,0.0,81,0.00,,---,0.00,VWS V14.00,2013-01-05 05:39:00,
2013-01-05 00:44:00,39.7,34.4,30.41,SSE,154,0.0,0.0,81,0.00,,---,0.00,VWS V14.00,2013-01-05 05:44:00,
2013-01-05 00:49:00,39.7,34.4,30.41,SSE,154,0.0,0.0,81,0.00,,---,0.00,VWS V14.00,2013-01-05 05:49:00,
2013-01-05 00:54:00,39.7,34.4,30.41,SSE,154,0.0,0.0,81,0.00,,---,0.00,VWS V14.00,2013-01-05 05:54:00,
2013-01-05 00:59:00,39.7,34.4,30.41,SSE,154,0.0,0.0,81,0.00,,---,0.00,VWS V14.00,2013-01-05 05:59:00,
2013-01-05 01:04:00,39.7,34.4,30.41,SSE,154,0.0,0.0,81,0.00,,---,0.00,VWS V14.00,2013-01-05 06:04:00,
2013-01-05 01:09:00,39.7,34.4,30.41,SSE,154,0.0,0.0,81,0.00,,---,0.00,VWS V14.00,2013-01-05 06:09:00,
2013-01-05 01:14:00,39.9,34.6,30.41,SSE,154,0.0,0.0,81,0.00,,---,0.00,VWS V14.00,2013-01-05 06:14:00,
2013-01-05 01:19:00,39.9,34.6,30.41,SSE,154,0.0,0.0,81,0.00,,---,0.00,VWS V14.00,2013-01-05 06:19:00,
2013-01-05 01:24:00,39.7,34.4,30.41,SSE,154,0.0,0.0,81,0.00,,---,0.00,VWS V14.00,2013-01-05 06:24:00,
2013-01-05 01:29:00,39.7,34.4,30.41,SSE,154,0.0,0.0,81,0.00,,---,0.00,VWS V14.00,2013-01-05 06:29:00,
2013-01-05 01:34:00,39.9,34.6,30.41,SSE,154,0.0,0.0,81,0.00,,---,0.00,VWS V14.00,2013-01-05 06:34:00,
2013-01-05 01:39:00,39.9,34.9,30.41,SSE,154,0.0,0.0,82,0.00,,---,0.00,VWS V14.00,2013-01-05 06:39:00,
2013-01-05 01:44:00,39.9,34.9,30.41,SSE,154,0.0,0.0,82,0.00,,---,0.00,VWS V14.00,2013-01-05 06:44:00,
2013-01-05 01:49:00,39.9,34.9,30.41,SSE,154,0.0,0.0,82,0.00,,---,0.00,VWS V14.00,2013-01-05 06:49:00,
2013-01-05 01:54:00,39.9,34.9,30.41,SSE,154,0.0,0.0,82,0.00,,---,0.00,VWS V14.00,2013-01-05 06:54:00,
2013-01-05 01:59:00,39.9,34.9,30.41,SSE,154,0.0,0.0,82,0.00,,---,0.00,VWS V14.00,2013-01-05 06:59:00,
2013-01-05 02:04:00,39.9,34.9,30.41,SSE,154,0.0,0.0,82,0.00,,---,0.00,VWS V14.00,2013-01-05 07:04:00,
2013-01-05 02:09:00,39.9,34.9,30.41,SSE,154,0.0,0.0,82,0.00,,---,0.00,VWS V14.00,2013-01-05 07:09:00,
2013-01-05 02:14:00,39.9,34.9,30.41,SSE,154,0.0,0.0,82,0.00,,---,0.00,VWS V14.00,2013-01-05 07:14:00,
2013-01-05 02:19:00,39.9,34.9,30.41,SSE,154,0.0,0.0,82,0.00,,---,0.00,VWS V14.00,2013-01-05 07:19:00,
2013-01-05 02:24:00,39.9,34.9,30.41,SSE,154,0.0,0.0,82,0.00,,---,0.00,VWS V14.00,2013-01-05 07:24:00,
2013-01-05 02:29:00,39.9,34.9,30.41,SSE,154,0.0,0.0,82,0.00,,---,0.00,VWS V14.00,2013-01-05 07:29:00,
2013-01-05 02:34:00,39.9,34.9,30.41,SSE,154,0.0,0.0,82,0.00,,---,0.00,VWS V14.00,2013-01-05 07:34:00,
2013-01-05 02:39:00,39.9,34.9,30.41,SSE,154,0.0,0.0,82,0.00,,---,0.00,VWS V14.00,2013-01-05 07:39:00,
2013-01-05 02:44:00,39.9,34.9,30.41,SSE,154,0.0,0.0,82,0.00,,---,0.00,VWS V14.00,2013-01-05 07:44:00,
2013-01-05 02:49:00,39.9,34.9,30.41,SSE,154,0.0,0.0,82,0.00,,---,0.00,VWS V14.00,2013-01-05 07:49:00,
2013-01-05 02:54:00,39.9,34.9,30.41,SSE,154,0.0,0.0,82,0.00,,---,0.00,VWS V14.00,2013-01-05 07:54:00,
2013-01-05 02:59:00,39.9,34.9,30.41,SSE,154,0.0,0.0,82,0.00,,---,0.00,VWS V14.00,2013-01-05 07:59:00,
2013-01-05 03:04:00,39.9,34.9,30.38,SSE,154,0.0,0.0,82,0.00,,---,0.00,VWS V14.00,2013-01-05 08:04:00,
2013-01-05 03:09:00,39.9,34.9,30.38,SSE,154,0.0,0.0,82,0.00,,---,0.00,VWS V14.00,2013-01-05 08:09:00,
2013-01-05 03:14:00,39.9,34.9,30.38,SSE,154,0.0,0.0,82,0.00,,---,0.00,VWS V14.00,2013-01-05 08:14:00,
2013-01-05 03:19:00,39.7,34.7,30.41,SSE,154,0.0,0.0,82,0.00,,---,0.00,VWS V14.00,2013-01-05 08:19:00,
2013-01-05 03:24:00,39.7,34.7,30.41,SSE,154,0.0,0.0,82,0.00,,---,0.00,VWS V14.00,2013-01-05 08:24:00,
2013-01-05 03:29:00,39.7,34.7,30.41,SSE,154,0.0,0.0,82,0.00,,---,0.00,VWS V14.00,2013-01-05 08:29:00,
2013-01-05 03:34:00,39.7,34.7,30.38,SSE,154,0.0,0.0,82,0.00,,---,0.00,VWS V14.00,2013-01-05 08:34:00,
2013-01-05 03:39:00,39.7,34.7,30.38,SSE,154,0.0,0.0,82,0.00,,---,0.00,VWS V14.00,2013-01-05 08:39:00,
2013-01-05 03:44:00,39.7,34.7,30.38,SSE,154,0.0,0.0,82,0.00,,---,0.00,VWS V14.00,2013-01-05 08:44:00,
2013-01-05 03:49:00,39.7,34.7,30.38,SSE,154,0.0,0.0,82,0.00,,---,0.00,VWS V14.00,2013-01-05 08:49:00,
2013-01-05 03:54:00,39.7,35.0,30.38,SSE,154,0.0,0.0,83,0.00,,---,0.00,VWS V14.00,2013-01-05 08:54:00,
2013-01-05 03:59:00,39.7,35.0,30.38,SSE,154,0.0,0.0,83,0.00,,---,0.00,VWS V14.00,2013-01-05 08:59:00,
2013-01-05 04:04:00,39.7,35.0,30.41,SSE,154,0.0,0.0,83,0.00,,---,0.00,VWS V14.00,2013-01-05 09:04:00,
2013-01-05 04:09:00,39.6,34.8,30.41,SSE,154,0.0,0.0,83,0.00,,---,0.00,VWS V14.00,2013-01-05 09:09:00,
2013-01-05 04:14:00,39.6,34.8,30.41,SSE,154,0.0,0.0,83,0.00,,---,0.00,VWS V14.00,2013-01-05 09:14:00,
2013-01-05 04:19:00,39.6,34.8,30.38,SSE,154,0.0,0.0,83,0.00,,---,0.00,VWS V14.00,2013-01-05 09:19:00,
2013-01-05 04:24:00,39.6,34.8,30.38,SSE,154,0.0,0.0,83,0.00,,---,0.00,VWS V14.00,2013-01-05 09:24:00,
2013-01-05 04:29:00,39.6,34.8,30.38,SSE,154,0.0,0.0,83,0.00,,---,0.00,VWS V14.00,2013-01-05 09:29:00,
2013-01-05 04:34:00,39.6,34.8,30.38,SSE,154,0.0,0.0,83,0.00,,---,0.00,VWS V14.00,2013-01-05 09:34:00,
2013-01-05 04:39:00,39.6,34.8,30.38,SSE,154,0.0,0.0,83,0.00,,---,0.00,VWS V14.00,2013-01-05 09:39:00,
2013-01-05 04:44:00,39.6,34.8,30.38,SSE,154,0.0,0.0,83,0.00,,---,0.00,VWS V14.00,2013-01-05 09:44:00,
2013-01-05 04:49:00,39.6,34.8,30.38,SSE,154,0.0,0.0,83,0.00,,---,0.00,VWS V14.00,2013-01-05 09:49:00,
2013-01-05 04:54:00,39.4,34.7,30.38,SSE,154,0.0,0.0,83,0.00,,---,0.00,VWS V14.00,2013-01-05 09:54:00,
2013-01-05 04:59:00,39.4,34.7,30.38,SSE,154,0.0,0.0,83,0.00,,---,0.00,VWS V14.00,2013-01-05 09:59:00,
2013-01-05 05:04:00,39.4,34.7,30.38,SSE,154,0.0,0.0,83,0.00,,---,0.00,VWS V14.00,2013-01-05 10:04:00,
2013-01-05 05:09:00,39.4,34.7,30.38,SSE,154,0.0,0.0,83,0.00,,---,0.00,VWS V14.00,2013-01-05 10:09:00,
2013-01-05 05:14:00,39.4,34.7,30.38,SSE,154,0.0,0.0,83,0.00,,---,0.00,VWS V14.00,2013-01-05 10:14:00,
2013-01-05 05:19:00,39.4,34.7,30.38,SSE,154,0.0,0.0,83,0.00,,---,0.00,VWS V14.00,2013-01-05 10:19:00,
2013-01-05 05:24:00,39.4,34.7,30.38,SSE,154,0.0,0.0,83,0.00,,---,0.00,VWS V14.00,2013-01-05 10:24:00,
2013-01-05 05:29:00,39.4,34.7,30.38,SSE,154,0.0,0.0,83,0.00,,---,0.00,VWS V14.00,2013-01-05 10:29:00,
2013-01-05 05:34:00,39.4,34.7,30.38,SSE,154,0.0,2.2,83,0.00,,---,0.00,VWS V14.00,2013-01-05 10:34:00,
2013-01-05 05:39:00,39.4,34.7,30.38,SSE,154,0.0,0.0,83,0.00,,---,0.00,VWS V14.00,2013-01-05 10:39:00,
2013-01-05 05:44:00,39.4,34.7,30.38,SSE,154,0.0,0.0,83,0.00,,---,0.00,VWS V14.00,2013-01-05 10:44:00,
2013-01-05 05:49:00,39.4,34.7,30.38,SSE,154,0.0,0.0,83,0.00,,---,0.00,VWS V14.00,2013-01-05 10:49:00,
2013-01-05 05:54:00,39.6,34.8,30.38,SSE,154,0.0,0.0,83,0.00,,---,0.00,VWS V14.00,2013-01-05 10:54:00,
2013-01-05 05:59:00,39.4,34.7,30.38,SSE,154,0.0,0.0,83,0.00,,---,0.00,VWS V14.00,2013-01-05 10:59:00,
2013-01-05 06:04:00,39.4,34.7,30.38,SSE,154,0.0,0.0,83,0.00,,---,0.00,VWS V14.00,2013-01-05 11:04:00,
2013-01-05 06:09:00,39.4,34.7,30.38,SSE,154,0.0,0.0,83,0.00,,---,0.00,VWS V14.00,2013-01-05 11:09:00,
2013-01-05 06:14:00,39.6,34.8,30.38,SSE,154,0.0,0.0,83,0.00,,---,0.00,VWS V14.00,2013-01-05 11:14:00,
2013-01-05 06:19:00,39.6,35.1,30.35,SSE,154,0.0,0.0,84,0.00,,---,0.00,VWS V14.00,2013-01-05 11:19:00,
2013-01-05 06:24:00,39.6,35.1,30.35,SSE,154,0.0,0.0,84,0.00,,---,0.00,VWS V14.00,2013-01-05 11:24:00,
2013-01-05 06:29:00,39.6,35.1,30.35,SSE,154,0.0,0.0,84,0.00,,---,0.00,VWS V14.00,2013-01-05 11:29:00,
2013-01-05 06:34:00,39.6,35.1,30.38,SSE,154,0.0,0.0,84,0.00,,---,0.00,VWS V14.00,2013-01-05 11:34:00,
2013-01-05 06:39:00,39.6,35.1,30.38,SSE,154,0.0,0.0,84,0.00,,---,0.00,VWS V14.00,2013-01-05 11:39:00,
2013-01-05 06:44:00,39.6,35.1,30.38,SSE,154,0.0,0.0,84,0.00,,---,0.00,VWS V14.00,2013-01-05 11:44:00,
2013-01-05 06:49:00,39.7,35.3,30.38,SSE,154,0.0,0.0,84,0.00,,---,0.00,VWS V14.00,2013-01-05 11:49:00,
2013-01-05 06:54:00,39.7,35.3,30.38,SSE,154,0.0,0.0,84,0.00,,---,0.00,VWS V14.00,2013-01-05 11:54:00,
2013-01-05 06:59:00,39.7,35.3,30.38,SSE,154,0.0,0.0,84,0.00,,---,0.00,VWS V14.00,2013-01-05 11:59:00,
2013-01-05 07:04:00,39.7,35.3,30.35,SSE,154,0.0,0.0,84,0.00,,---,0.00,VWS V14.00,2013-01-05 12:04:00,
2013-01-05 07:09:00,39.7,35.3,30.35,SSE,154,0.0,0.0,84,0.00,,---,0.00,VWS V14.00,2013-01-05 12:09:00,
2013-01-05 07:14:00,39.6,35.1,30.35,SSE,154,0.0,0.0,84,0.00,,---,0.00,VWS V14.00,2013-01-05 12:14:00,
2013-01-05 07:19:00,39.4,35.0,30.35,SSE,154,0.0,0.0,84,0.00,,---,0.00,VWS V14.00,2013-01-05 12:19:00,
2013-01-05 07:24:00,39.4,35.0,30.35,SSE,154,0.0,0.0,84,0.00,,---,0.00,VWS V14.00,2013-01-05 12:24:00,
2013-01-05 07:29:00,39.4,35.0,30.35,SSE,154,0.0,0.0,84,0.00,,---,0.00,VWS V14.00,2013-01-05 12:29:00,
2013-01-05 07:34:00,39.4,35.0,30.35,SSE,154,0.0,0.0,84,0.00,,---,0.00,VWS V14.00,2013-01-05 12:34:00,
2013-01-05 07:39:00,39.4,35.0,30.35,SSE,154,0.0,0.0,84,0.00,,---,0.00,VWS V14.00,2013-01-05 12:39:00,
2013-01-05 07:44:00,39.6,35.1,30.35,SSE,154,0.0,0.0,84,0.00,,---,0.00,VWS V14.00,2013-01-05 12:44:00,
2013-01-05 07:49:00,39.6,35.1,30.35,SSE,154,0.0,0.0,84,0.00,,---,0.00,VWS V14.00,2013-01-05 12:49:00,
2013-01-05 07:54:00,39.6,35.1,30.35,SSE,154,0.0,0.0,84,0.00,,---,0.00,VWS V14.00,2013-01-05 12:54:00,
2013-01-05 07:59:00,39.4,35.0,30.35,SSE,154,0.0,0.0,84,0.00,,---,0.00,VWS V14.00,2013-01-05 12:59:00,
2013-01-05 08:04:00,39.4,35.0,30.38,SSE,154,0.0,0.0,84,0.00,,---,0.00,VWS V14.00,2013-01-05 13:04:00,
2013-01-05 08:09:00,39.6,35.1,30.38,SSE,154,0.0,0.0,84,0.00,,---,0.00,VWS V14.00,2013-01-05 13:09:00,
2013-01-05 08:14:00,39.6,35.1,30.38,SSE,154,0.0,0.0,84,0.00,,---,0.00,VWS V14.00,2013-01-05 13:14:00,
2013-01-05 08:19:00,39.7,35.3,30.38,SSE,154,0.0,0.0,84,0.00,,---,0.00,VWS V14.00,2013-01-05 13:19:00,
2013-01-05 08:24:00,39.7,35.3,30.38,SSE,154,0.0,0.0,84,0.00,,---,0.00,VWS V14.00,2013-01-05 13:24:00,
2013-01-05 08:29:00,39.7,35.3,30.38,SSE,154,0.0,0.0,84,0.00,,---,0.00,VWS V14.00,2013-01-05 13:29:00,
2013-01-05 08:34:00,39.9,35.5,30.38,SSE,154,0.0,0.0,84,0.00,,---,0.00,VWS V14.00,2013-01-05 13:34:00,
2013-01-05 08:39:00,39.9,35.8,30.38,SSE,154,4.0,4.0,85,0.00,,---,0.00,VWS V14.00,2013-01-05 13:39:00,
2013-01-05 08:44:00,40.1,36.0,30.38,SSE,154,3.1,3.6,85,0.00,,---,0.00,VWS V14.00,2013-01-05 13:44:00,
2013-01-05 08:49:00,40.3,36.1,30.38,SSE,154,0.0,0.0,85,0.00,,---,0.00,VWS V14.00,2013-01-05 13:49:00,
2013-01-05 08:54:00,40.3,36.1,30.38,SSE,154,0.0,0.0,85,0.00,,---,0.00,VWS V14.00,2013-01-05 13:54:00,
2013-01-05 08:59:00,40.5,36.3,30.38,SSE,154,0.0,0.0,85,0.00,,---,0.00,VWS V14.00,2013-01-05 13:59:00,
2013-01-05 09:04:00,40.5,36.3,30.38,SSE,154,2.2,2.7,85,0.00,,---,0.00,VWS V14.00,2013-01-05 14:04:00,
2013-01-05 09:09:00,40.6,36.5,30.38,SSE,154,0.0,0.0,85,0.00,,---,0.00,VWS V14.00,2013-01-05 14:09:00,
2013-01-05 09:14:00,40.6,36.5,30.38,SSE,154,0.0,0.0,85,0.00,,---,0.00,VWS V14.00,2013-01-05 14:14:00,
2013-01-05 09:19:00,40.8,36.7,30.38,SSE,154,0.0,2.2,85,0.00,,---,0.00,VWS V14.00,2013-01-05 14:19:00,
2013-01-05 09:24:00,41.0,36.8,30.38,SSE,154,2.7,2.7,85,0.00,,---,0.00,VWS V14.00,2013-01-05 14:24:00,
2013-01-05 09:29:00,41.0,36.8,30.38,SSE,154,2.7,3.1,85,0.00,,---,0.00,VWS V14.00,2013-01-05 14:29:00,
2013-01-05 09:34:00,41.2,37.0,30.38,SSE,154,0.0,2.2,85,0.00,,---,0.00,VWS V14.00,2013-01-05 14:34:00,
2013-01-05 09:39:00,41.5,37.4,30.38,SSE,154,0.0,0.0,85,0.00,,---,0.00,VWS V14.00,2013-01-05 14:39:00,
2013-01-05 09:44:00,41.7,37.5,30.38,SSE,154,2.2,2.7,85,0.00,,---,0.00,VWS V14.00,2013-01-05 14:44:00,
2013-01-05 09:49:00,41.7,37.5,30.38,SSE,154,0.0,0.0,85,0.00,,---,0.00,VWS V14.00,2013-01-05 14:49:00,
2013-01-05 09:54:00,42.1,37.9,30.38,SSE,154,0.0,0.0,85,0.00,,---,0.00,VWS V14.00,2013-01-05 14:54:00,
2013-01-05 09:59:00,42.3,38.1,30.38,SSE,154,0.0,0.0,85,0.00,,---,0.00,VWS V14.00,2013-01-05 14:59:00,
2013-01-05 10:03:00,42.4,38.3,30.38,SSE,155,0.0,0.0,85,0.00,,---,0.00,VWS V14.00,2013-01-05 15:03:00,
2013-01-05 10:08:00,42.4,38.3,30.38,SSE,157,2.7,2.7,85,0.00,,---,0.00,VWS V14.00,2013-01-05 15:08:00,
2013-01-05 10:13:00,42.6,38.4,30.38,SSE,157,0.0,2.2,85,0.00,,---,0.00,VWS V14.00,2013-01-05 15:13:00,
2013-01-05 10:18:00,42.6,38.4,30.41,SSE,157,0.0,0.0,85,0.00,,---,0.00,VWS V14.00,2013-01-05 15:18:00,
2013-01-05 10:23:00,43.3,39.1,30.41,SSE,159,0.0,0.0,85,0.00,,---,0.00,VWS V14.00,2013-01-05 15:23:00,
2013-01-05 10:28:00,43.3,39.1,30.41,SSE,164,0.0,0.0,85,0.00,,---,0.00,VWS V14.00,2013-01-05 15:28:00,
2013-01-05 10:33:00,43.5,39.3,30.38,NNE,15,0.0,0.0,85,0.00,,---,0.00,VWS V14.00,2013-01-05 15:33:00,
2013-01-05 10:38:00,43.7,39.5,30.38,WNW,301,2.7,3.1,85,0.00,,---,0.00,VWS V14.00,2013-01-05 15:38:00,
2013-01-05 10:43:00,43.9,39.7,30.38,NW,324,2.7,4.0,85,0.00,,---,0.00,VWS V14.00,2013-01-05 15:43:00,
2013-01-05 10:48:00,44.1,39.8,30.41,WNW,290,5.4,5.8,85,0.00,,---,0.00,VWS V14.00,2013-01-05 15:48:00,
2013-01-05 10:53:00,44.1,39.8,30.41,NW,315,0.0,2.7,85,0.00,,---,0.00,VWS V14.00,2013-01-05 15:53:00,
2013-01-05 10:58:00,44.2,40.0,30.41,NW,316,5.4,6.3,85,0.00,,---,0.00,VWS V14.00,2013-01-05 15:58:00,
2013-01-05 11:03:00,44.2,40.0,30.41,North,350,5.8,6.3,85,0.00,,---,0.00,VWS V14.00,2013-01-05 16:03:00,
2013-01-05 11:08:00,43.9,39.7,30.41,NNW,340,6.3,6.3,85,0.00,,---,0.00,VWS V14.00,2013-01-05 16:08:00,
2013-01-05 11:13:00,43.9,39.4,30.41,North,353,3.6,4.9,84,0.00,,---,0.00,VWS V14.00,2013-01-05 16:13:00,
2013-01-05 11:18:00,43.9,39.4,30.38,NNW,344,5.4,5.4,84,0.00,,---,0.00,VWS V14.00,2013-01-05 16:18:00,
2013-01-05 11:23:00,43.9,39.1,30.38,NNE,25,4.9,4.9,83,0.00,,---,0.00,VWS V14.00,2013-01-05 16:23:00,
2013-01-05 11:28:00,44.1,39.2,30.38,NNW,340,5.4,6.3,83,0.00,,---,0.00,VWS V14.00,2013-01-05 16:28:00,
2013-01-05 11:33:00,44.1,39.2,30.38,NNW,341,3.6,5.4,83,0.00,,---,0.00,VWS V14.00,2013-01-05 16:33:00,
2013-01-05 11:38:00,43.9,38.8,30.38,NW,323,3.1,4.0,82,0.00,,---,0.00,VWS V14.00,2013-01-05 16:38:00,
2013-01-05 11:43:00,44.1,38.9,30.38,North,3,6.3,6.3,82,0.00,,---,0.00,VWS V14.00,2013-01-05 16:43:00,
2013-01-05 11:48:00,44.1,38.9,30.38,North,0,4.9,4.9,82,0.00,,---,0.00,VWS V14.00,2013-01-05 16:48:00,
2013-01-05 11:53:00,44.1,38.9,30.38,NNW,338,5.8,5.8,82,0.00,,---,0.00,VWS V14.00,2013-01-05 16:53:00,
2013-01-05 11:58:00,44.1,38.6,30.38,NNW,342,4.9,4.9,81,0.00,,---,0.00,VWS V14.00,2013-01-05 16:58:00,
2013-01-05 12:03:00,44.2,38.8,30.38,NW,307,3.6,5.4,81,0.00,,---,0.00,VWS V14.00,2013-01-05 17:03:00,
2013-01-05 12:08:00,44.6,38.8,30.38,North,353,3.6,4.0,80,0.00,,---,0.00,VWS V14.00,2013-01-05 17:08:00,
2013-01-05 12:13:00,44.8,39.0,30.38,NNW,335,2.2,4.9,80,0.00,,---,0.00,VWS V14.00,2013-01-05 17:13:00,
2013-01-05 12:18:00,44.8,39.0,30.38,WNW,291,2.7,4.9,80,0.00,,---,0.00,VWS V14.00,2013-01-05 17:18:00,
2013-01-05 12:23:00,44.8,38.7,30.38,WNW,296,3.6,5.8,79,0.00,,---,0.00,VWS V14.00,2013-01-05 17:23:00,
2013-01-05 12:28:00,44.8,39.0,30.38,NNE,20,3.1,3.1,80,0.00,,---,0.00,VWS V14.00,2013-01-05 17:28:00,
2013-01-05 12:33:00,45.0,38.8,30.38,NW,312,3.6,5.4,79,0.00,,---,0.00,VWS V14.00,2013-01-05 17:33:00,
2013-01-05 12:38:00,45.1,39.3,30.38,NW,305,3.6,4.0,80,0.00,,---,0.00,VWS V14.00,2013-01-05 17:38:00,
2013-01-05 12:43:00,45.3,39.5,30.38,NNE,22,2.7,4.0,80,0.00,,---,0.00,VWS V14.00,2013-01-05 17:43:00,
2013-01-05 12:48:00,45.1,38.7,30.38,NW,316,3.1,4.0,78,0.00,,---,0.00,VWS V14.00,2013-01-05 17:48:00,
2013-01-05 12:53:00,45.1,38.7,30.38,NW,307,5.8,5.8,78,0.00,,---,0.00,VWS V14.00,2013-01-05 17:53:00,
2013-01-05 12:58:00,45.3,39.2,30.38,West,279,3.1,3.6,79,0.00,,---,0.00,VWS V14.00,2013-01-05 17:58:00,
2013-01-05 13:03:00,45.7,39.5,30.35,WSW,253,4.0,4.0,79,0.00,,---,0.00,VWS V14.00,2013-01-05 18:03:00,
2013-01-05 13:08:00,46.4,40.2,30.35,West,274,0.0,0.0,79,0.00,,---,0.00,VWS V14.00,2013-01-05 18:08:00,
2013-01-05 13:13:00,46.9,41.1,30.35,West,277,3.1,5.8,80,0.00,,---,0.00,VWS V14.00,2013-01-05 18:13:00,
2013-01-05 13:18:00,47.3,41.5,30.35,West,278,4.0,4.0,80,0.00,,---,0.00,VWS V14.00,2013-01-05 18:18:00,
2013-01-05 13:23:00,47.7,41.8,30.35,West,277,4.0,5.4,80,0.00,,---,0.00,VWS V14.00,2013-01-05 18:23:00,
2013-01-05 13:28:00,48.0,42.2,30.35,SW,218,4.0,5.4,80,0.00,,---,0.00,VWS V14.00,2013-01-05 18:28:00,
2013-01-05 13:33:00,48.4,42.2,30.32,WSW,250,2.7,4.0,79,0.00,,---,0.00,VWS V14.00,2013-01-05 18:33:00,
2013-01-05 13:38:00,48.6,42.3,30.32,NW,311,2.7,3.6,79,0.00,,---,0.00,VWS V14.00,2013-01-05 18:38:00,
2013-01-05 13:43:00,48.9,42.7,30.32,WNW,287,3.6,5.4,79,0.00,,---,0.00,VWS V14.00,2013-01-05 18:43:00,
2013-01-05 13:48:00,49.3,42.7,30.32,NW,306,5.8,5.8,78,0.00,,---,0.00,VWS V14.00,2013-01-05 18:48:00,
2013-01-05 13:53:00,49.3,42.0,30.32,NW,318,4.5,4.5,76,0.00,,---,0.00,VWS V14.00,2013-01-05 18:53:00,
2013-01-05 13:58:00,49.5,40.8,30.32,North,357,0.0,3.6,72,0.00,,---,0.00,VWS V14.00,2013-01-05 18:58:00,
2013-01-05 14:03:00,49.6,39.9,30.32,NW,323,5.8,5.8,69,0.00,,---,0.00,VWS V14.00,2013-01-05 19:03:00,
2013-01-05 14:08:00,49.6,39.9,30.32,NNW,343,3.6,3.6,69,0.00,,---,0.00,VWS V14.00,2013-01-05 19:08:00,
2013-01-05 14:13:00,49.8,38.5,30.32,NNW,327,3.1,3.6,65,0.00,,---,0.00,VWS V14.00,2013-01-05 19:13:00,
2013-01-05 14:18:00,50.2,38.9,30.29,ENE,66,3.6,3.6,65,0.00,,---,0.00,VWS V14.00,2013-01-05 19:18:00,
2013-01-05 14:23:00,50.5,39.6,30.29,NW,304,6.3,6.3,66,0.00,,---,0.00,VWS V14.00,2013-01-05 19:23:00,
2013-01-05 14:28:00,50.7,38.2,30.29,WNW,297,4.9,4.9,62,0.00,,---,0.00,VWS V14.00,2013-01-05 19:28:00,
2013-01-05 14:33:00,50.7,38.6,30.29,North,0,2.7,2.7,63,0.00,,---,0.00,VWS V14.00,2013-01-05 19:33:00,
2013-01-05 14:38:00,50.9,37.1,30.29,NNE,22,4.9,4.9,59,0.00,,---,0.00,VWS V14.00,2013-01-05 19:38:00,
2013-01-05 14:43:00,51.1,38.5,30.29,North,7,0.0,0.0,62,0.00,,---,0.00,VWS V14.00,2013-01-05 19:43:00,
2013-01-05 14:48:00,51.4,38.9,30.29,NNE,18,6.3,6.3,62,0.00,,---,0.00,VWS V14.00,2013-01-05 19:48:00,
2013-01-05 14:53:00,51.6,36.9,30.29,NW,324,3.1,5.4,57,0.00,,---,0.00,VWS V14.00,2013-01-05 19:53:00,
2013-01-05 14:58:00,51.4,36.7,30.29,NE,38,2.7,2.7,57,0.00,,---,0.00,VWS V14.00,2013-01-05 19:58:00,
2013-01-05 15:03:00,51.4,37.2,30.27,ENE,78,5.4,5.4,58,0.00,,---,0.00,VWS V14.00,2013-01-05 20:03:00,
2013-01-05 15:08:00,51.8,36.2,30.27,North,4,4.9,4.9,55,0.00,,---,0.00,VWS V14.00,2013-01-05 20:08:00,
2013-01-05 15:13:00,52.0,34.9,30.27,NE,53,4.9,4.9,52,0.00,,---,0.00,VWS V14.00,2013-01-05 20:13:00,
2013-01-05 15:18:00,52.2,36.0,30.27,ENE,57,3.1,3.1,54,0.00,,---,0.00,VWS V14.00,2013-01-05 20:18:00,
2013-01-05 15:23:00,52.2,35.6,30.27,NNE,32,3.6,4.0,53,0.00,,---,0.00,VWS V14.00,2013-01-05 20:23:00,
2013-01-05 15:28:00,52.3,35.7,30.27,North,8,2.2,4.0,53,0.00,,---,0.00,VWS V14.00,2013-01-05 20:28:00,
2013-01-05 15:33:00,52.5,35.9,30.27,NNE,32,2.7,5.8,53,0.00,,---,0.00,VWS V14.00,2013-01-05 20:33:00,
2013-01-05 15:38:00,52.7,35.6,30.27,NE,49,3.6,3.6,52,0.00,,---,0.00,VWS V14.00,2013-01-05 20:38:00,
2013-01-05 15:43:00,52.7,35.1,30.27,NNE,18,5.4,5.4,51,0.00,,---,0.00,VWS V14.00,2013-01-05 20:43:00,
2013-01-05 15:48:00,52.7,34.6,30.27,NNE,29,3.1,3.1,50,0.00,,---,0.00,VWS V14.00,2013-01-05 20:48:00,
2013-01-05 15:53:00,52.7,34.6,30.27,NNE,20,4.5,5.4,50,0.00,,---,0.00,VWS V14.00,2013-01-05 20:53:00,
2013-01-05 15:58:00,52.7,34.6,30.27,West,274,3.6,4.0,50,0.00,,---,0.00,VWS V14.00,2013-01-05 20:58:00,
2013-01-05 16:03:00,52.9,35.3,30.27,WSW,238,3.6,3.6,51,0.00,,---,0.00,VWS V14.00,2013-01-05 21:03:00,
2013-01-05 16:08:00,53.1,35.4,30.27,SSW,205,4.0,4.0,51,0.00,,---,0.00,VWS V14.00,2013-01-05 21:08:00,
2013-01-05 16:13:00,53.6,35.9,30.27,SW,214,2.2,2.7,51,0.00,,---,0.00,VWS V14.00,2013-01-05 21:13:00,
2013-01-05 16:18:00,54.0,36.3,30.27,South,181,3.6,3.6,51,0.00,,---,0.00,VWS V14.00,2013-01-05 21:18:00,
2013-01-05 16:23:00,54.0,36.3,30.27,SE,127,0.0,0.0,51,0.00,,---,0.00,VWS V14.00,2013-01-05 21:23:00,
2013-01-05 16:28:00,54.1,36.4,30.27,WSW,242,4.9,4.9,51,0.00,,---,0.00,VWS V14.00,2013-01-05 21:28:00,
2013-01-05 16:33:00,54.3,36.6,30.27,SW,218,0.0,0.0,51,0.00,,---,0.00,VWS V14.00,2013-01-05 21:33:00,
2013-01-05 16:38:00,54.3,36.1,30.27,North,2,3.6,3.6,50,0.00,,---,0.00,VWS V14.00,2013-01-05 21:38:00,
2013-01-05 16:43:00,54.1,35.4,30.27,ENE,66,2.2,3.1,49,0.00,,---,0.00,VWS V14.00,2013-01-05 21:43:00,
2013-01-05 16:48:00,54.0,33.7,30.27,SW,224,4.0,4.0,46,0.00,,---,0.00,VWS V14.00,2013-01-05 21:48:00,
2013-01-05 16:53:00,54.1,34.4,30.27,West,265,2.7,3.1,47,0.00,,---,0.00,VWS V14.00,2013-01-05 21:53:00,
2013-01-05 16:58:00,54.3,35.1,30.27,SW,228,2.2,2.7,48,0.00,,---,0.00,VWS V14.00,2013-01-05 21:58:00,
2013-01-05 17:03:00,54.3,34.5,30.27,West,267,0.0,2.2,47,0.00,,---,0.00,VWS V14.00,2013-01-05 22:03:00,
2013-01-05 17:08:00,54.1,34.4,30.27,North,3,2.2,4.0,47,0.00,,---,0.00,VWS V14.00,2013-01-05 22:08:00,
2013-01-05 17:13:00,54.1,34.4,30.27,North,357,0.0,3.6,47,0.00,,---,0.00,VWS V14.00,2013-01-05 22:13:00,
2013-01-05 17:18:00,54.1,34.4,30.27,NNE,25,0.0,0.0,47,0.00,,---,0.00,VWS V14.00,2013-01-05 22:18:00,
2013-01-05 17:23:00,54.0,34.2,30.27,NE,39,0.0,2.7,47,0.00,,---,0.00,VWS V14.00,2013-01-05 22:23:00,
2013-01-05 17:28:00,53.8,34.0,30.27,NE,35,3.6,3.6,47,0.00,,---,0.00,VWS V14.00,2013-01-05 22:28:00,
2013-01-05 17:33:00,53.6,33.9,30.27,NNE,18,0.0,0.0,47,0.00,,---,0.00,VWS V14.00,2013-01-05 22:33:00,
2013-01-05 17:38:00,53.4,34.2,30.27,ESE,117,0.0,2.2,48,0.00,,---,0.00,VWS V14.00,2013-01-05 22:38:00,
2013-01-05 17:43:00,53.1,33.9,30.27,ESE,117,0.0,0.0,48,0.00,,---,0.00,VWS V14.00,2013-01-05 22:43:00,
2013-01-05 17:48:00,52.9,33.7,30.27,NE,42,0.0,0.0,48,0.00,,---,0.00,VWS V14.00,2013-01-05 22:48:00,
2013-01-05 17:53:00,52.9,33.7,30.27,NE,42,0.0,0.0,48,0.00,,---,0.00,VWS V14.00,2013-01-05 22:53:00,
2013-01-05 17:58:00,52.7,33.6,30.27,NE,42,0.0,0.0,48,0.00,,---,0.00,VWS V14.00,2013-01-05 22:58:00,
2013-01-05 18:03:00,52.5,33.4,30.27,NE,42,0.0,0.0,48,0.00,,---,0.00,VWS V14.00,2013-01-05 23:03:00,
2013-01-05 18:08:00,52.3,33.2,30.27,NE,42,0.0,0.0,48,0.00,,---,0.00,VWS V14.00,2013-01-05 23:08:00,
2013-01-05 18:13:00,52.2,33.1,30.27,NE,42,0.0,0.0,48,0.00,,---,0.00,VWS V14.00,2013-01-05 23:13:00,
2013-01-05 18:18:00,52.0,32.9,30.27,NE,42,0.0,0.0,48,0.00,,---,0.00,VWS V14.00,2013-01-05 23:18:00,
2013-01-05 18:23:00,51.6,33.1,30.27,East,86,5.8,5.8,49,0.00,,---,0.00,VWS V14.00,2013-01-05 23:23:00,
2013-01-05 18:28:00,51.3,32.8,30.27,East,92,4.0,4.0,49,0.00,,---,0.00,VWS V14.00,2013-01-05 23:28:00,
2013-01-05 18:33:00,51.1,32.6,30.27,East,89,3.1,3.6,49,0.00,,---,0.00,VWS V14.00,2013-01-05 23:33:00,
2013-01-05 18:38:00,50.7,32.3,30.27,East,95,3.1,3.1,49,0.00,,---,0.00,VWS V14.00,2013-01-05 23:38:00,
2013-01-05 18:43:00,50.4,31.9,30.27,East,95,2.7,3.6,49,0.00,,---,0.00,VWS V14.00,2013-01-05 23:43:00,
2013-01-05 18:48:00,50.2,31.8,30.27,SE,127,3.6,3.6,49,0.00,,---,0.00,VWS V14.00,2013-01-05 23:48:00,
2013-01-05 18:53:00,49.8,31.9,30.27,SE,128,2.7,2.7,50,0.00,,---,0.00,VWS V14.00,2013-01-05 23:53:00,
2013-01-05 18:58:00,49.5,31.6,30.27,SE,128,2.7,3.1,50,0.00,,---,0.00,VWS V14.00,2013-01-05 23:58:00,
2013-01-05 19:03:00,49.3,31.9,30.27,SE,128,3.1,3.6,51,0.00,,---,0.00,VWS V14.00,2013-01-06 00:03:00,
2013-01-05 19:08:00,48.9,31.6,30.27,SE,139,3.6,3.6,51,0.00,,---,0.00,VWS V14.00,2013-01-06 00:08:00,
2013-01-05 19:13:00,48.7,31.4,30.27,SE,139,2.7,2.7,51,0.00,,---,24.76,VWS V14.00,2013-01-06 00:13:00,
2013-01-05 19:18:00,48.6,31.8,30.27,SE,145,3.1,3.1,52,0.00,,---,24.76,VWS V14.00,2013-01-06 00:18:00,
2013-01-05 19:20:00,48.4,31.6,30.26,SSE,149,3.1,3.1,52,0.28,,---,0.28,VWS V14.00,2013-01-06 00:20:00,
2013-01-05 19:21:00,48.4,31.6,30.26,SSE,149,2.7,3.1,52,0.28,,---,0.28,VWS V14.00,2013-01-06 00:21:00,
2013-01-05 19:22:00,48.2,31.4,30.26,SSE,155,3.1,3.6,52,0.28,,---,24.99,VWS V14.00,2013-01-06 00:22:00,
2013-01-05 19:23:00,48.2,31.4,30.27,SSE,158,3.1,3.1,52,0.28,,---,0.05,VWS V14.00,2013-01-06 00:23:00,
2013-01-05 19:24:00,48.2,31.4,30.26,SSE,159,3.6,3.6,52,0.28,,---,0.05,VWS V14.00,2013-01-06 00:24:00,
2013-01-05 19:25:00,48.0,31.2,30.26,SSE,159,3.6,3.6,52,0.28,,---,0.05,VWS V14.00,2013-01-06 00:25:00,
2013-01-05 19:26:00,48.0,31.2,30.26,SSE,159,3.6,4.0,52,0.28,,---,0.05,VWS V14.00,2013-01-06 00:26:00,
2013-01-05 19:27:00,48.0,31.2,30.26,SSE,164,2.7,4.0,52,0.28,,---,0.05,VWS V14.00,2013-01-06 00:27:00,
2013-01-05 19:28:00,47.8,31.1,30.27,SSE,164,3.6,3.6,52,0.28,,---,0.05,VWS V14.00,2013-01-06 00:28:00,
2013-01-05 19:29:00,47.8,31.5,30.26,SSE,164,4.0,4.0,53,0.28,,---,0.05,VWS V14.00,2013-01-06 00:29:00,
2013-01-05 19:30:00,47.8,31.5,30.26,SSE,164,3.1,4.0,53,0.28,,---,0.05,VWS V14.00,2013-01-06 00:30:00,
2013-01-05 19:31:00,47.8,31.5,30.26,SSE,164,3.6,3.6,53,0.28,,---,0.05,VWS V14.00,2013-01-06 00:31:00,
2013-01-05 19:32:00,47.7,31.4,30.26,SSE,164,3.1,3.6,53,0.28,,---,0.05,VWS V14.00,2013-01-06 00:32:00,
2013-01-05 19:33:00,47.7,31.4,30.27,SSE,164,2.7,3.1,53,0.28,,---,0.05,VWS V14.00,2013-01-06 00:33:00,
2013-01-05 19:34:00,47.7,31.4,30.26,SSE,164,2.7,3.1,53,0.28,,---,0.05,VWS V14.00,2013-01-06 00:34:00,
2013-01-05 19:35:00,47.5,31.2,30.26,SSE,164,3.1,3.1,53,0.28,,---,0.05,VWS V14.00,2013-01-06 00:35:00,
2013-01-05 19:36:00,47.5,31.2,30.26,SSE,164,3.1,3.6,53,0.28,,---,0.05,VWS V14.00,2013-01-06 00:36:00,
2013-01-05 19:37:00,47.5,31.2,30.26,SSE,164,3.1,3.1,53,0.28,,---,0.05,VWS V14.00,2013-01-06 00:37:00,
2013-01-05 19:38:00,47.5,31.2,30.27,SSE,164,2.7,3.1,53,0.28,,---,0.05,VWS V14.00,2013-01-06 00:38:00,
2013-01-05 19:39:00,47.3,31.0,30.26,SSE,164,2.7,3.1,53,0.28,,---,0.05,VWS V14.00,2013-01-06 00:39:00,
2013-01-05 19:40:00,47.3,31.0,30.26,SSE,164,2.7,3.1,53,0.28,,---,0.05,VWS V14.00,2013-01-06 00:40:00,
2013-01-05 19:41:00,47.3,31.0,30.26,SSE,164,2.7,3.1,53,0.28,,---,0.05,VWS V14.00,2013-01-06 00:41:00,
2013-01-05 19:42:00,47.3,31.0,30.26,SSE,164,2.7,3.6,53,0.28,,---,0.05,VWS V14.00,2013-01-06 00:42:00,
2013-01-05 19:43:00,47.3,31.0,30.27,SSE,164,2.7,2.7,53,0.28,,---,0.05,VWS V14.00,2013-01-06 00:43:00,
2013-01-05 19:44:00,47.1,31.3,30.26,SSE,164,2.7,2.7,54,0.28,,---,0.05,VWS V14.00,2013-01-06 00:44:00,
2013-01-05 19:45:00,47.1,31.3,30.26,SSE,164,2.7,2.7,54,0.28,,---,0.05,VWS V14.00,2013-01-06 00:45:00,
2013-01-05 19:46:00,47.1,31.3,30.26,SSE,164,0.0,2.7,54,0.28,,---,0.05,VWS V14.00,2013-01-06 00:46:00,
2013-01-05 19:47:00,47.1,31.3,30.30,SSE,164,2.2,3.1,54,0.28,,---,0.05,VWS V14.00,2013-01-06 00:47:00,
2013-01-05 19:48:00,47.1,31.4,30.29,SSE,164,2.2,2.7,54,0.28,,---,0.05,VWS V14.00,2013-01-06 00:48:00,
2013-01-05 19:49:00,47.1,31.3,30.30,SSE,164,0.0,2.7,54,0.28,,---,0.05,VWS V14.00,2013-01-06 00:49:00,
2013-01-05 19:50:00,46.9,31.2,30.30,SSE,164,2.2,2.2,54,0.28,,---,0.05,VWS V14.00,2013-01-06 00:50:00,
2013-01-05 19:51:00,46.9,31.2,30.30,SSE,165,0.0,2.2,54,0.28,,---,0.05,VWS V14.00,2013-01-06 00:51:00,
2013-01-05 19:52:00,46.9,31.2,30.30,SSE,165,0.0,0.0,54,0.28,,---,0.05,VWS V14.00,2013-01-06 00:52:00,
2013-01-05 19:53:00,46.9,31.2,30.29,SSE,165,2.7,2.7,54,0.28,,---,0.05,VWS V14.00,2013-01-06 00:53:00,
2013-01-05 19:54:00,46.9,31.2,30.30,SSE,165,2.7,2.7,54,0.28,,---,0.05,VWS V14.00,2013-01-06 00:54:00,
2013-01-05 19:55:00,46.8,31.0,30.30,SSE,165,3.1,3.1,54,0.28,,---,0.05,VWS V14.00,2013-01-06 00:55:00,
2013-01-05 19:56:00,46.8,31.0,30.30,SSE,165,2.7,3.1,54,0.28,,---,0.05,VWS V14.00,2013-01-06 00:56:00,
2013-01-05 19:57:00,46.8,31.0,30.30,SSE,166,2.7,3.1,54,0.28,,---,0.05,VWS V14.00,2013-01-06 00:57:00,
2013-01-05 19:58:00,46.8,31.5,30.29,SSE,167,2.2,2.2,55,0.28,,---,0.05,VWS V14.00,2013-01-06 00:58:00,
2013-01-05 19:59:00,46.8,31.5,30.30,SSE,167,2.2,2.7,55,0.28,,---,0.05,VWS V14.00,2013-01-06 00:59:00,
2013-01-05 20:00:00,46.8,31.5,30.30,SSE,168,2.2,2.7,55,0.28,,---,0.05,VWS V14.00,2013-01-06 01:00:00,
2013-01-05 20:01:00,46.8,31.5,30.30,SSE,168,2.2,3.1,55,0.28,,---,0.05,VWS V14.00,2013-01-06 01:01:00,
2013-01-05 20:02:00,46.6,31.3,30.30,SSE,168,2.7,3.1,55,0.28,,---,0.05,VWS V14.00,2013-01-06 01:02:00,
2013-01-05 20:03:00,46.6,31.3,30.29,SSE,168,2.7,2.7,55,0.28,,---,0.05,VWS V14.00,2013-01-06 01:03:00,
2013-01-05 20:04:00,46.6,31.3,30.30,SSE,168,2.7,2.7,55,0.28,,---,0.05,VWS V14.00,2013-01-06 01:04:00,
2013-01-05 20:05:00,46.6,31.3,30.30,South,172,2.7,2.7,55,0.28,,---,0.05,VWS V14.00,2013-01-06 01:05:00,
2013-01-05 20:06:00,46.4,31.1,30.30,South,181,3.1,3.1,55,0.28,,---,0.05,VWS V14.00,2013-01-06 01:06:00,
2013-01-05 20:07:00,46.4,31.1,30.30,South,189,3.1,3.1,55,0.28,,---,0.05,VWS V14.00,2013-01-06 01:07:00,
2013-01-05 20:08:00,46.4,31.1,30.29,SSW,194,3.1,3.6,55,0.28,,---,0.05,VWS V14.00,2013-01-06 01:08:00,
2013-01-05 20:09:00,46.2,31.0,30.30,SSW,197,4.0,4.0,55,0.28,,---,0.05,VWS V14.00,2013-01-06 01:09:00,
2013-01-05 20:10:00,46.2,31.0,30.30,SSW,193,2.7,4.0,55,0.28,,---,0.05,VWS V14.00,2013-01-06 01:10:00,
2013-01-05 20:11:00,46.2,31.4,30.30,SSW,193,3.1,3.1,56,0.28,,---,0.05,VWS V14.00,2013-01-06 01:11:00,
2013-01-05 20:12:00,46.2,31.4,30.30,SSW,193,3.1,3.1,56,0.28,,---,0.05,VWS V14.00,2013-01-06 01:12:00,
2013-01-05 20:13:00,46.2,31.4,30.29,SSW,192,2.7,3.6,56,0.28,,---,0.05,VWS V14.00,2013-01-06 01:13:00,
2013-01-05 20:14:00,46.2,31.4,30.30,SSW,192,3.1,3.6,56,0.28,,---,0.05,VWS V14.00,2013-01-06 01:14:00,
2013-01-05 20:15:00,46.2,31.4,30.30,SSW,192,3.6,3.6,56,0.28,,---,0.05,VWS V14.00,2013-01-06 01:15:00,
2013-01-05 20:18:00,46.0,31.2,30.29,SSW,192,3.1,3.1,56,0.28,,---,0.05,VWS V14.00,2013-01-06 01:18:00,
2013-01-05 20:23:00,46.0,31.2,30.29,SSW,200,2.7,3.1,56,0.00,,---,0.05,VWS V14.00,2013-01-06 01:23:00,
2013-01-05 20:28:00,45.9,31.5,30.29,SSW,200,2.7,2.7,57,0.00,,---,0.05,VWS V14.00,2013-01-06 01:28:00,
2013-01-05 20:33:00,45.9,31.5,30.29,SSW,200,2.7,2.7,57,0.00,,---,0.05,VWS V14.00,2013-01-06 01:33:00,
2013-01-05 20:38:00,45.7,31.3,30.29,SSW,200,2.7,2.7,57,0.00,,---,0.05,VWS V14.00,2013-01-06 01:38:00,
2013-01-05 20:43:00,45.5,31.6,30.29,SSW,200,2.7,2.7,58,0.00,,---,0.05,VWS V14.00,2013-01-06 01:43:00,
2013-01-05 20:48:00,45.3,31.4,30.29,SSW,200,0.0,0.0,58,0.00,,---,0.05,VWS V14.00,2013-01-06 01:48:00,
2013-01-05 20:53:00,45.3,31.4,30.29,SSW,200,3.1,3.6,58,0.00,,---,0.05,VWS V14.00,2013-01-06 01:53:00,
2013-01-05 20:58:00,45.1,31.3,30.29,SSW,200,2.2,2.2,58,0.00,,---,0.05,VWS V14.00,2013-01-06 01:58:00,
2013-01-05 21:03:00,44.6,30.8,30.29,SSW,200,3.6,3.6,58,0.00,,---,0.05,VWS V14.00,2013-01-06 02:03:00,
2013-01-05 21:08:00,44.4,31.0,30.29,SSW,200,2.7,3.1,59,0.00,,---,0.05,VWS V14.00,2013-01-06 02:08:00,
2013-01-05 21:13:00,44.2,30.8,30.29,SSW,200,2.7,2.7,59,0.00,,---,0.05,VWS V14.00,2013-01-06 02:13:00,
2013-01-05 21:18:00,43.9,30.5,30.29,SSW,200,3.6,3.6,59,0.00,,---,0.05,VWS V14.00,2013-01-06 02:18:00,
2013-01-05 21:23:00,43.7,30.7,30.29,SSW,202,4.0,4.0,60,0.00,,---,0.05,VWS V14.00,2013-01-06 02:23:00,
2013-01-05 21:28:00,43.3,30.4,30.29,SSW,208,3.1,3.1,60,0.00,,---,0.05,VWS V14.00,2013-01-06 02:28:00,
2013-01-05 21:33:00,43.0,30.1,30.29,SSW,208,2.7,3.1,60,0.00,,---,0.05,VWS V14.00,2013-01-06 02:33:00,
2013-01-05 21:38:00,42.8,30.3,30.29,SSW,208,0.0,0.0,61,0.00,,---,0.05,VWS V14.00,2013-01-06 02:38:00,
2013-01-05 21:43:00,42.3,29.8,30.29,SSW,208,0.0,0.0,61,0.00,,---,0.05,VWS V14.00,2013-01-06 02:43:00,
2013-01-05 21:48:00,42.1,29.6,30.29,SSW,208,0.0,0.0,61,0.00,,---,0.05,VWS V14.00,2013-01-06 02:48:00,
2013-01-05 21:53:00,41.9,29.9,30.29,SSW,208,4.0,4.0,62,0.00,,---,0.05,VWS V14.00,2013-01-06 02:53:00,
2013-01-05 21:58:00,42.1,30.0,30.29,SSW,213,4.0,6.3,62,0.00,,---,0.05,VWS V14.00,2013-01-06 02:58:00,
2013-01-05 22:03:00,42.3,30.6,30.29,South,191,4.0,4.0,63,0.00,,---,0.05,VWS V14.00,2013-01-06 03:03:00,
2013-01-05 22:08:00,42.8,31.5,30.29,SSW,198,3.6,3.6,64,0.00,,---,0.05,VWS V14.00,2013-01-06 03:08:00,
2013-01-05 22:13:00,43.2,31.8,30.29,SSW,205,3.1,3.6,64,0.00,,---,0.05,VWS V14.00,2013-01-06 03:13:00,
2013-01-05 22:18:00,43.2,31.8,30.32,SSW,206,3.1,3.6,64,0.00,,---,0.05,VWS V14.00,2013-01-06 03:18:00,
2013-01-05 22:23:00,43.2,31.8,30.32,SSW,207,3.6,3.6,64,0.00,,---,0.05,VWS V14.00,2013-01-06 03:23:00,
2013-01-05 22:28:00,43.2,32.2,30.32,SSW,207,3.6,3.6,65,0.00,,---,0.05,VWS V14.00,2013-01-06 03:28:00,
2013-01-05 22:33:00,43.2,32.2,30.32,SSW,208,3.6,3.6,65,0.00,,---,0.05,VWS V14.00,2013-01-06 03:33:00,
2013-01-05 22:38:00,43.0,32.0,30.32,SSW,208,3.6,4.0,65,0.00,,---,0.05,VWS V14.00,2013-01-06 03:38:00,
2013-01-05 22:43:00,43.0,32.0,30.32,SW,214,4.5,4.9,65,0.00,,---,0.05,VWS V14.00,2013-01-06 03:43:00,
2013-01-05 22:48:00,43.0,32.4,30.32,SW,214,4.9,4.9,66,0.00,,---,0.05,VWS V14.00,2013-01-06 03:48:00,
2013-01-05 22:53:00,43.0,32.4,30.32,SW,214,4.0,4.0,66,0.00,,---,0.05,VWS V14.00,2013-01-06 03:53:00,
2013-01-05 22:58:00,42.8,32.2,30.32,SW,218,4.0,5.4,66,0.00,,---,0.05,VWS V14.00,2013-01-06 03:58:00,
2013-01-05 23:03:00,42.4,31.9,30.32,SW,218,4.0,4.9,66,0.00,,---,0.05,VWS V14.00,2013-01-06 04:03:00,
2013-01-05 23:09:00,42.1,31.6,30.32,SW,218,4.0,4.9,66,0.00,,---,0.05,VWS V14.00,2013-01-06 04:09:00,
2013-01-05 23:14:00,41.7,31.2,30.32,SW,218,4.0,4.0,66,0.00,,---,0.05,VWS V14.00,2013-01-06 04:14:00,
2013-01-05 23:19:00,40.8,30.4,30.32,SW,218,3.1,3.6,66,0.00,,---,0.05,VWS V14.00,2013-01-06 04:19:00,
2013-01-05 23:24:00,40.1,29.7,30.32,SW,218,3.1,3.1,66,0.00,,---,0.05,VWS V14.00,2013-01-06 04:24:00,
2013-01-05 23:29:00,39.4,29.0,30.32,SW,218,2.2,2.7,66,0.00,,---,0.05,VWS V14.00,2013-01-06 04:29:00,
2013-01-05 23:34:00,39.0,29.0,30.32,SW,218,2.2,2.7,67,0.00,,---,0.05,VWS V14.00,2013-01-06 04:34:00,
2013-01-05 23:39:00,38.7,28.7,30.32,SW,218,0.0,0.0,67,0.00,,---,0.05,VWS V14.00,2013-01-06 04:39:00,
2013-01-05 23:44:00,38.5,28.9,30.32,SW,218,2.7,2.7,68,0.00,,---,0.05,VWS V14.00,2013-01-06 04:44:00,
2013-01-05 23:49:00,38.7,29.0,30.32,SW,218,2.7,2.7,68,0.00,,---,0.05,VWS V14.00,2013-01-06 04:49:00,
2013-01-05 23:54:00,38.7,29.4,30.32,SW,218,3.1,3.6,69,0.00,,---,0.05,VWS V14.00,2013-01-06 04:54:00,
2013-01-05 23:59:00,39.2,29.9,30.32,SW,218,4.9,4.9,69,0.00,,---,0.05,VWS V14.00,2013-01-06 04:59:00,